createdAt,value
2023-03-03T00:01:50.863Z,60.58
2023-03-03T00:04:20.416Z,58.85
2023-03-03T00:06:47.782Z,55.88
2023-03-03T00:09:14.884Z,55.53
2023-03-03T00:11:47.591Z,53.88
2023-03-03T00:14:36.295Z,56.38
2023-03-03T00:17:20.775Z,67.03
2023-03-03T00:19:48.124Z,64.63
2023-03-03T00:22:26.808Z,61.88
2023-03-03T00:24:58.708Z,70.68
2023-03-03T00:27:32.157Z,71.13
2023-03-03T00:30:03.284Z,68.72
2023-03-03T00:32:45.484Z,75.55
2023-03-03T00:35:25.232Z,78.20
2023-03-03T00:38:00.255Z,86.03
2023-03-03T00:40:31.952Z,84.13
2023-03-03T00:43:02.437Z,85.13
2023-03-03T00:45:47.781Z,83.40
2023-03-03T00:48:28.946Z,86.57
2023-03-03T00:50:58.696Z,86.53
2023-03-03T00:53:29.012Z,87.25
2023-03-03T00:55:56.568Z,85.43
2023-03-03T00:58:29.140Z,85.25
2023-03-03T01:00:58.438Z,78.22
2023-03-03T01:03:28.883Z,71.55
2023-03-03T01:05:58.341Z,62.70
2023-03-03T01:08:25.794Z,63.90
2023-03-03T01:11:09.092Z,65.63
2023-03-03T01:13:41.542Z,62.45
2023-03-03T01:16:09.172Z,62.83
2023-03-03T01:18:37.445Z,59.72
2023-03-03T01:21:04.660Z,62.15
2023-03-03T01:23:32.018Z,59.67
2023-03-03T01:25:59.119Z,58.63
2023-03-03T01:28:26.701Z,57.00
2023-03-03T01:30:59.974Z,55.78
2023-03-03T01:33:32.463Z,53.85
2023-03-03T01:35:59.625Z,56.55
2023-03-03T01:38:29.548Z,56.65
2023-03-03T01:40:59.583Z,55.08
2023-03-03T01:43:34.662Z,52.58
2023-03-03T01:46:01.755Z,51.03
2023-03-03T01:48:33.034Z,50.92
2023-03-03T01:51:20.826Z,49.30
2023-03-03T01:53:57.007Z,51.75
2023-03-03T01:56:25.000Z,49.95
2023-03-03T01:59:12.169Z,52.47
2023-03-03T02:01:42.102Z,49.83
2023-03-03T02:04:15.450Z,50.33
2023-03-03T02:06:50.711Z,49.95
2023-03-03T02:09:37.177Z,47.63
2023-03-03T02:12:11.832Z,46.10
2023-03-03T02:14:41.451Z,47.70
2023-03-03T02:17:08.585Z,45.55
2023-03-03T02:19:38.740Z,48.05
2023-03-03T02:22:08.080Z,47.72
2023-03-03T02:24:42.995Z,46.60
2023-03-03T02:27:12.952Z,46.38
2023-03-03T02:29:40.390Z,45.63
2023-03-03T02:32:07.523Z,45.47
2023-03-03T02:34:51.439Z,45.13
2023-03-03T02:37:24.711Z,43.72
2023-03-03T02:39:52.021Z,41.88
2023-03-03T02:42:19.029Z,44.33
2023-03-03T02:44:46.840Z,45.72
2023-03-03T02:47:16.471Z,43.38
2023-03-03T02:49:43.868Z,43.50
2023-03-03T02:52:12.862Z,44.88
2023-03-03T02:54:44.847Z,42.50
2023-03-03T02:57:11.909Z,40.95
2023-03-03T02:59:41.959Z,41.67
2023-03-03T03:02:09.080Z,38.45
2023-03-03T03:04:38.979Z,41.03
2023-03-03T03:07:08.608Z,39.22
2023-03-03T03:09:35.966Z,40.38
2023-03-03T03:12:03.001Z,40.33
2023-03-03T03:14:30.344Z,39.97
2023-03-03T03:16:59.648Z,39.83
2023-03-03T03:19:27.395Z,38.78
2023-03-03T03:21:54.445Z,39.35
2023-03-03T03:24:21.743Z,40.05
2023-03-03T03:26:48.817Z,39.90
2023-03-03T03:29:16.328Z,39.55
2023-03-03T03:31:43.558Z,38.85
2023-03-03T03:34:11.205Z,38.97
2023-03-03T03:36:38.289Z,38.75
2023-03-03T03:39:06.032Z,38.78
2023-03-03T03:41:33.307Z,40.28
2023-03-03T03:44:00.692Z,38.65
2023-03-03T03:46:27.776Z,38.33
2023-03-03T03:48:55.139Z,39.05
2023-03-03T03:51:22.193Z,38.25
2023-03-03T03:53:49.655Z,40.83
2023-03-03T03:56:16.737Z,40.55
2023-03-03T03:58:44.165Z,40.17
2023-03-03T04:04:00.724Z,42.40
2023-03-03T04:06:28.280Z,44.42
2023-03-03T04:08:57.751Z,41.85
2023-03-03T04:11:25.371Z,41.08
2023-03-03T04:13:54.858Z,42.70
2023-03-03T04:16:22.251Z,44.55
2023-03-03T04:18:49.312Z,42.83
2023-03-03T04:21:17.027Z,41.38
2023-03-03T04:23:44.068Z,42.25
2023-03-03T04:26:11.470Z,41.40
2023-03-03T04:28:40.749Z,40.60
2023-03-03T04:31:08.236Z,41.08
2023-03-03T04:33:35.294Z,41.42
2023-03-03T04:36:03.104Z,41.20
2023-03-03T04:38:30.390Z,42.20
2023-03-03T04:40:57.996Z,41.78
2023-03-03T04:43:27.543Z,40.22
2023-03-03T04:45:57.391Z,41.92
2023-03-03T04:48:24.463Z,41.80
2023-03-03T04:50:51.914Z,41.55
2023-03-03T04:53:18.965Z,43.63
2023-03-03T04:55:49.696Z,41.85
2023-03-03T04:58:16.712Z,44.38
2023-03-03T05:00:44.223Z,43.15
2023-03-03T05:03:12.948Z,45.55
2023-03-03T05:05:46.002Z,44.60
2023-03-03T05:08:15.578Z,43.53
2023-03-03T05:10:42.940Z,47.15
2023-03-03T05:13:12.199Z,44.15
2023-03-03T05:15:42.199Z,44.38
2023-03-03T05:18:12.795Z,40.63
2023-03-03T05:20:43.201Z,43.38
2023-03-03T05:23:12.592Z,43.05
2023-03-03T05:25:47.841Z,42.92
2023-03-03T05:28:14.913Z,45.20
2023-03-03T05:30:42.384Z,46.25
2023-03-03T05:33:14.041Z,44.00
2023-03-03T05:35:41.581Z,41.78
2023-03-03T05:38:08.662Z,45.22
2023-03-03T05:40:36.371Z,41.10
2023-03-03T05:43:03.575Z,43.20
2023-03-03T05:45:31.136Z,44.67
2023-03-03T05:47:58.335Z,42.17
2023-03-03T05:50:28.078Z,44.35
2023-03-03T05:52:55.198Z,43.53
2023-03-03T05:55:22.652Z,42.53
2023-03-03T05:57:49.845Z,40.00
2023-03-03T06:00:20.054Z,40.58
2023-03-03T06:02:47.179Z,42.60
2023-03-03T06:05:17.290Z,41.17
2023-03-03T06:07:44.466Z,40.10
2023-03-03T06:10:14.086Z,42.50
2023-03-03T06:12:41.189Z,52.17
2023-03-03T06:15:09.841Z,50.08
2023-03-03T06:17:37.060Z,43.70
2023-03-03T06:20:07.507Z,39.10
2023-03-03T06:22:34.582Z,42.13
2023-03-03T06:25:02.000Z,41.95
2023-03-03T06:27:29.670Z,42.30
2023-03-03T06:29:57.187Z,42.58
2023-03-03T06:32:24.376Z,44.47
2023-03-03T06:34:56.166Z,42.30
2023-03-03T06:37:23.196Z,36.40
2023-03-03T06:39:50.681Z,39.17
2023-03-03T06:42:17.746Z,36.33
2023-03-03T06:44:46.671Z,34.75
2023-03-03T06:47:13.710Z,38.35
2023-03-03T06:49:41.082Z,34.92
2023-03-03T06:52:19.075Z,39.13
2023-03-03T06:54:46.541Z,40.15
2023-03-03T06:57:30.069Z,39.22
2023-03-03T07:00:23.278Z,38.10
2023-03-03T07:03:15.344Z,45.90
2023-03-03T07:05:44.001Z,43.42
2023-03-03T07:08:19.131Z,38.88
2023-03-03T07:10:47.806Z,33.88
2023-03-03T07:13:22.455Z,34.67
2023-03-03T07:15:52.199Z,32.00
2023-03-03T07:18:24.833Z,31.98
2023-03-03T07:20:52.227Z,28.38
2023-03-03T07:23:23.279Z,29.13
2023-03-03T07:25:53.909Z,26.85
2023-03-03T07:28:28.602Z,27.63
2023-03-03T07:30:58.100Z,27.23
2023-03-03T07:33:25.185Z,25.70
2023-03-03T07:35:55.396Z,28.15
2023-03-03T07:38:53.561Z,29.92
2023-03-03T07:41:21.582Z,30.20
2023-03-03T07:44:04.943Z,28.52
2023-03-03T07:46:35.337Z,30.13
2023-03-03T07:49:16.189Z,28.63
2023-03-03T07:51:45.850Z,27.63
2023-03-03T07:54:22.102Z,31.05
2023-03-03T07:56:49.532Z,29.60
2023-03-03T07:59:23.123Z,30.27
2023-03-03T08:04:28.565Z,26.60
2023-03-03T08:07:01.826Z,24.30
2023-03-03T08:09:45.952Z,24.60
2023-03-03T08:12:31.204Z,25.10
2023-03-03T08:15:25.159Z,25.20
2023-03-03T08:17:54.951Z,24.05
2023-03-03T08:21:03.112Z,22.98
2023-03-03T08:23:30.538Z,33.63
2023-03-03T08:25:57.614Z,23.88
2023-03-03T08:28:25.080Z,24.23
2023-03-03T08:31:08.922Z,24.20
2023-03-03T08:33:44.727Z,23.10
2023-03-03T08:36:14.423Z,24.95
2023-03-03T08:38:41.854Z,25.75
2023-03-03T08:41:09.346Z,25.88
2023-03-03T08:43:36.831Z,21.80
2023-03-03T08:46:06.147Z,25.17
2023-03-03T08:48:34.382Z,28.60
2023-03-03T08:51:01.658Z,25.75
2023-03-03T08:53:29.116Z,24.55
2023-03-03T08:55:59.119Z,24.02
2023-03-03T08:58:34.971Z,24.33
2023-03-03T09:01:05.316Z,25.10
2023-03-03T09:03:32.776Z,23.50
2023-03-03T09:06:02.186Z,23.73
2023-03-03T09:08:29.579Z,23.95
2023-03-03T09:10:56.622Z,24.20
2023-03-03T09:13:23.979Z,22.77
2023-03-03T09:15:51.134Z,24.75
2023-03-03T09:18:30.228Z,22.92
2023-03-03T09:20:57.254Z,23.00
2023-03-03T09:23:37.625Z,22.58
2023-03-03T09:26:23.197Z,21.15
2023-03-03T09:28:55.578Z,22.33
2023-03-03T09:31:27.752Z,22.38
2023-03-03T09:33:55.270Z,22.70
2023-03-03T09:36:37.697Z,23.30
2023-03-03T09:39:25.911Z,23.05
2023-03-03T09:42:08.086Z,22.70
2023-03-03T09:44:41.733Z,22.40
2023-03-03T09:47:29.781Z,21.20
2023-03-03T09:50:03.997Z,22.10
2023-03-03T09:55:00.413Z,20.90
2023-03-03T09:58:11.016Z,21.20
2023-03-03T10:01:12.672Z,19.63
2023-03-03T10:04:16.293Z,20.33
2023-03-03T10:07:00.854Z,20.90
2023-03-03T10:12:10.021Z,19.20
2023-03-03T10:14:51.814Z,20.85
2023-03-03T10:17:40.589Z,19.52
2023-03-03T10:20:34.767Z,20.42
2023-03-03T10:23:40.779Z,19.42
2023-03-03T10:26:44.368Z,19.15
2023-03-03T10:29:37.743Z,19.52
2023-03-03T10:32:42.327Z,19.08
2023-03-03T10:35:21.050Z,19.05
2023-03-03T10:38:06.857Z,18.98
2023-03-03T10:40:57.051Z,18.58
2023-03-03T10:43:50.092Z,18.05
2023-03-03T10:46:48.548Z,18.08
2023-03-03T10:49:35.951Z,19.35
2023-03-03T10:52:29.414Z,18.52
2023-03-03T10:55:15.100Z,19.67
2023-03-03T10:58:03.354Z,19.00
2023-03-03T11:00:47.079Z,17.65
2023-03-03T11:03:36.314Z,18.02
2023-03-03T11:06:32.709Z,18.77
2023-03-03T11:09:30.902Z,17.63
2023-03-03T11:12:05.871Z,17.00
2023-03-03T11:14:39.808Z,17.45
2023-03-03T11:19:43.479Z,17.42
2023-03-03T11:22:10.923Z,16.55
2023-03-03T11:24:45.301Z,17.05
2023-03-03T11:27:33.417Z,18.00
2023-03-03T11:30:34.434Z,16.60
2023-03-03T11:33:17.541Z,15.82
2023-03-03T11:35:58.460Z,16.08
2023-03-03T11:38:34.186Z,15.70
2023-03-03T11:41:07.860Z,15.90
2023-03-03T11:44:08.583Z,15.10
2023-03-03T11:46:43.965Z,15.27
2023-03-03T11:49:33.565Z,14.73
2023-03-03T11:52:27.155Z,14.85
2023-03-03T11:55:23.886Z,15.75
2023-03-03T11:58:17.956Z,15.98
2023-03-03T12:01:04.135Z,14.52
2023-03-03T12:03:55.144Z,13.45
2023-03-03T12:06:43.990Z,15.38
2023-03-03T12:09:20.861Z,14.50
2023-03-03T12:11:54.338Z,14.20
2023-03-03T12:14:59.241Z,14.30
2023-03-03T12:17:45.241Z,15.18
2023-03-03T12:20:27.680Z,14.63
2023-03-03T12:23:30.043Z,13.80
2023-03-03T12:26:20.525Z,14.35
2023-03-03T12:28:53.707Z,15.57
2023-03-03T12:31:29.582Z,13.30
2023-03-03T12:34:25.811Z,13.05
2023-03-03T12:37:05.055Z,13.45
2023-03-03T12:39:50.436Z,13.85
2023-03-03T12:42:44.566Z,14.68
2023-03-03T12:45:32.227Z,15.05
2023-03-03T12:48:27.503Z,15.00
2023-03-03T12:51:14.997Z,12.50
2023-03-03T12:54:13.285Z,14.13
2023-03-03T12:56:53.805Z,14.35
2023-03-03T12:59:36.175Z,14.25
2023-03-03T13:02:24.949Z,14.40
2023-03-03T13:05:20.488Z,15.30
2023-03-03T13:07:52.417Z,14.60
2023-03-03T13:10:34.826Z,16.60
2023-03-03T13:13:34.127Z,15.32
2023-03-03T13:16:12.134Z,14.90
2023-03-03T13:19:02.112Z,15.20
2023-03-03T13:21:39.928Z,15.90
2023-03-03T13:24:07.013Z,14.38
2023-03-03T13:27:07.242Z,14.65
2023-03-03T13:29:42.233Z,13.02
2023-03-03T13:32:19.804Z,14.95
2023-03-03T13:35:02.277Z,14.80
2023-03-03T13:37:40.879Z,13.48
2023-03-03T13:40:14.002Z,11.98
2023-03-03T13:42:44.706Z,19.52
2023-03-03T13:45:30.696Z,12.40
2023-03-03T13:48:25.751Z,13.35
2023-03-03T13:51:44.145Z,12.45
2023-03-03T13:54:39.304Z,11.65
2023-03-03T13:57:25.165Z,11.80
2023-03-03T14:00:29.225Z,12.30
2023-03-03T14:03:14.919Z,12.20
2023-03-03T14:05:46.516Z,11.10
2023-03-03T14:08:38.212Z,10.70
2023-03-03T14:11:27.074Z,11.15
2023-03-03T14:14:28.988Z,12.13
2023-03-03T14:17:09.018Z,12.13
2023-03-03T14:19:50.107Z,11.93
2023-03-03T14:22:17.457Z,11.82
2023-03-03T14:25:03.368Z,13.02
2023-03-03T14:27:38.214Z,13.65
2023-03-03T14:30:27.393Z,13.90
2023-03-03T14:33:10.037Z,12.85
2023-03-03T14:35:50.163Z,12.10
2023-03-03T14:38:32.413Z,13.88
2023-03-03T14:41:11.383Z,11.55
2023-03-03T14:43:38.715Z,13.32
2023-03-03T14:46:22.978Z,13.07
2023-03-03T14:48:52.116Z,13.20
2023-03-03T14:51:48.204Z,13.63
2023-03-03T14:54:34.678Z,12.68
2023-03-03T14:57:11.905Z,13.85
2023-03-03T14:59:39.345Z,14.70
2023-03-03T15:02:18.632Z,13.02
2023-03-03T15:04:48.985Z,13.73
2023-03-03T15:07:37.423Z,17.92
2023-03-03T15:10:07.858Z,13.70
2023-03-03T15:12:37.522Z,14.35
2023-03-03T15:15:04.953Z,13.48
2023-03-03T15:17:37.887Z,13.23
2023-03-03T15:20:23.935Z,14.75
2023-03-03T15:23:22.939Z,13.02
2023-03-03T15:26:30.350Z,13.07
2023-03-03T15:29:19.088Z,13.73
2023-03-03T15:31:59.346Z,13.95
2023-03-03T15:34:33.277Z,13.80
2023-03-03T15:37:19.528Z,13.10
2023-03-03T15:39:58.772Z,11.63
2023-03-03T15:42:54.945Z,10.80
2023-03-03T15:45:35.429Z,11.57
2023-03-03T15:48:24.232Z,11.75
2023-03-03T15:51:14.430Z,11.85
2023-03-03T15:54:07.330Z,10.82
2023-03-03T15:56:48.051Z,10.93
2023-03-03T15:59:24.499Z,12.15
2023-03-03T16:02:23.231Z,11.95
2023-03-03T16:05:03.103Z,13.95
2023-03-03T16:07:36.042Z,11.80
2023-03-03T16:10:18.341Z,13.57
2023-03-03T16:13:09.803Z,13.52
2023-03-03T16:15:48.000Z,16.85
2023-03-03T16:18:18.130Z,15.70
2023-03-03T16:21:12.475Z,17.20
2023-03-03T16:23:50.346Z,19.45
2023-03-03T16:26:36.878Z,18.13
2023-03-03T16:29:06.894Z,17.92
2023-03-03T16:31:37.584Z,17.50
2023-03-03T16:34:19.947Z,18.27
2023-03-03T16:37:05.543Z,24.10
2023-03-03T16:40:03.128Z,26.25
2023-03-03T16:42:39.445Z,20.90
2023-03-03T16:45:21.757Z,20.20
2023-03-03T16:48:00.960Z,20.52
2023-03-03T16:50:43.201Z,20.08
2023-03-03T16:53:25.851Z,20.92
2023-03-03T16:56:44.692Z,22.50
2023-03-03T16:59:33.956Z,20.13
2023-03-03T17:02:18.576Z,20.63
2023-03-03T17:05:01.329Z,21.70
2023-03-03T17:07:37.488Z,23.88
2023-03-03T17:10:29.492Z,19.58
2023-03-03T17:13:06.824Z,18.23
2023-03-03T17:15:53.742Z,19.00
2023-03-03T17:18:37.732Z,19.25
2023-03-03T17:21:34.630Z,19.67
2023-03-03T17:24:07.520Z,19.17
2023-03-03T17:27:00.449Z,20.00
2023-03-03T17:29:36.877Z,18.48
2023-03-03T17:32:32.053Z,17.83
2023-03-03T17:35:23.770Z,17.33
2023-03-03T17:38:06.331Z,16.92
2023-03-03T17:40:36.631Z,15.95
2023-03-03T17:43:18.377Z,16.10
2023-03-03T17:45:48.151Z,15.02
2023-03-03T17:48:21.591Z,14.23
2023-03-03T17:51:10.231Z,21.98
2023-03-03T17:54:04.059Z,19.08
2023-03-03T17:57:01.119Z,13.88
2023-03-03T17:59:55.363Z,44.65
2023-03-03T18:02:28.071Z,20.98
2023-03-03T18:05:33.180Z,13.55
2023-03-03T18:08:12.166Z,24.33
2023-03-03T18:10:49.532Z,18.70
2023-03-03T18:13:52.779Z,14.05
2023-03-03T18:16:46.612Z,13.93
2023-03-03T18:19:16.923Z,13.10
2023-03-03T18:22:29.994Z,12.70
2023-03-03T18:25:18.839Z,12.40
2023-03-03T18:27:55.064Z,12.73
2023-03-03T18:30:44.000Z,12.68
2023-03-03T18:33:15.047Z,12.98
2023-03-03T18:35:46.643Z,12.65
2023-03-03T18:38:17.154Z,13.63
2023-03-03T18:40:53.069Z,12.55
2023-03-03T18:43:45.460Z,13.48
2023-03-03T18:46:23.492Z,13.70
2023-03-03T18:48:58.610Z,13.20
2023-03-03T18:51:34.695Z,13.48
2023-03-03T18:54:11.993Z,14.57
2023-03-03T18:56:54.286Z,14.38
2023-03-03T18:59:30.687Z,14.50
2023-03-03T19:02:12.934Z,13.98
2023-03-03T19:04:48.705Z,13.95
2023-03-03T19:07:21.967Z,12.82
2023-03-03T19:09:56.063Z,12.48
2023-03-03T19:13:01.029Z,13.65
2023-03-03T19:15:31.243Z,12.63
2023-03-03T19:18:14.660Z,12.23
2023-03-03T19:20:58.739Z,12.52
2023-03-03T19:23:50.821Z,12.65
2023-03-03T19:26:36.815Z,12.45
2023-03-03T19:29:19.364Z,11.95
2023-03-03T19:32:10.608Z,13.07
2023-03-03T19:35:08.650Z,12.35
2023-03-03T19:37:48.114Z,12.00
2023-03-03T19:40:50.808Z,18.13
2023-03-03T19:43:33.515Z,92.53
2023-03-03T19:46:25.450Z,19.70
2023-03-03T19:48:55.579Z,13.80
2023-03-03T19:51:34.825Z,13.25
2023-03-03T19:54:23.766Z,15.18
2023-03-03T19:56:54.062Z,15.80
2023-03-03T19:59:48.201Z,14.68
2023-03-03T20:02:26.808Z,15.60
2023-03-03T20:05:03.364Z,25.15
2023-03-03T20:07:42.674Z,21.60
2023-03-03T20:10:16.132Z,16.33
2023-03-03T20:12:50.719Z,15.70
2023-03-03T20:15:22.942Z,16.10
2023-03-03T20:18:11.176Z,17.08
2023-03-03T20:21:04.775Z,18.17
2023-03-03T20:23:34.804Z,16.83
2023-03-03T20:26:20.241Z,16.10
2023-03-03T20:29:08.041Z,16.08
2023-03-03T20:32:06.439Z,14.57
2023-03-03T20:34:51.673Z,15.98
2023-03-03T20:37:52.545Z,15.52
2023-03-03T20:40:39.461Z,16.23
2023-03-03T20:43:22.089Z,15.55
2023-03-03T20:45:49.180Z,15.68
2023-03-03T20:48:43.305Z,15.30
2023-03-03T20:51:38.706Z,15.50
2023-03-03T20:54:24.928Z,15.98
2023-03-03T20:57:00.721Z,15.43
2023-03-03T20:59:52.052Z,17.27
2023-03-03T21:02:32.524Z,16.38
2023-03-03T21:05:09.604Z,18.45
2023-03-03T21:07:53.176Z,17.73
2023-03-03T21:10:32.047Z,17.75
2023-03-03T21:13:34.528Z,17.90
2023-03-03T21:16:15.775Z,19.52
2023-03-03T21:18:42.946Z,17.30
2023-03-03T21:21:10.613Z,18.20
2023-03-03T21:23:37.691Z,18.95
2023-03-03T21:26:05.159Z,19.48
2023-03-03T21:28:35.238Z,20.65
2023-03-03T21:31:02.604Z,21.38
2023-03-03T21:33:39.612Z,18.42
2023-03-03T21:36:10.515Z,18.92
2023-03-03T21:38:40.065Z,20.38
2023-03-03T21:41:09.337Z,21.25
2023-03-03T21:43:37.838Z,21.38
2023-03-03T21:46:07.517Z,21.77
2023-03-03T21:48:39.366Z,20.38
2023-03-03T21:51:06.853Z,22.25
2023-03-03T21:53:33.914Z,22.27
2023-03-03T21:56:03.867Z,21.50
2023-03-03T21:58:30.966Z,21.35
2023-03-03T22:00:58.458Z,20.58
2023-03-03T22:03:28.029Z,17.98
2023-03-03T22:05:55.456Z,20.02
2023-03-03T22:08:22.754Z,17.98
2023-03-03T22:10:51.401Z,18.77
2023-03-03T22:13:18.494Z,19.20
2023-03-03T22:15:47.548Z,18.50
2023-03-03T22:18:20.352Z,16.80
2023-03-03T22:20:48.959Z,18.50
2023-03-03T22:23:16.692Z,18.35
2023-03-03T22:25:44.130Z,18.85
2023-03-03T22:28:11.217Z,17.45
2023-03-03T22:30:41.290Z,18.05
2023-03-03T22:33:10.952Z,18.63
2023-03-03T22:35:38.334Z,17.42
2023-03-03T22:38:05.488Z,17.45
2023-03-03T22:40:32.863Z,17.80
2023-03-03T22:43:00.491Z,17.52
2023-03-03T22:45:27.889Z,18.23
2023-03-03T22:47:54.992Z,18.35
2023-03-03T22:50:22.342Z,17.98
2023-03-03T22:52:49.451Z,19.10
2023-03-03T22:55:16.954Z,18.02
2023-03-03T22:57:46.395Z,17.45
2023-03-03T23:00:14.984Z,17.60
2023-03-03T23:02:42.430Z,17.98
2023-03-03T23:05:10.371Z,17.17
2023-03-03T23:07:39.525Z,17.02
2023-03-03T23:10:07.940Z,17.35
2023-03-03T23:12:35.064Z,17.77
2023-03-03T23:15:05.851Z,16.80
2023-03-03T23:17:32.938Z,15.70
2023-03-03T23:20:00.316Z,17.70
2023-03-03T23:22:29.606Z,17.00
2023-03-03T23:24:57.017Z,17.38
2023-03-03T23:27:26.278Z,17.33
2023-03-03T23:29:56.185Z,27.65
2023-03-03T23:32:23.267Z,29.42
2023-03-03T23:34:51.261Z,16.95
2023-03-03T23:37:18.698Z,16.98
2023-03-03T23:39:46.071Z,16.17
2023-03-03T23:42:13.333Z,18.15
2023-03-03T23:44:42.008Z,17.40
2023-03-03T23:47:09.423Z,15.73
2023-03-03T23:49:38.070Z,16.15
2023-03-03T23:52:05.701Z,16.88
2023-03-03T23:54:33.077Z,15.63
2023-03-03T23:57:02.493Z,16.67
2023-03-03T23:59:32.111Z,16.63
